BCN weather

Barcelona International Airport
Barcelona, Catalonia, Spain

Public forecast

Using degrees Celsius for public forecast. Weather courtesy of forecast.io.

METAR (pilot weather report)

Retrieved 2017/08/16 18:30 UTC (3 minutes ago):

LEBL 161830Z 07009KT 040V100 CAVOK 26/20 Q1018 NOSIG

TAF (pilot weather forecast)

Retrieved 2017/08/16 18:27 UTC (6 minutes ago):

TAF LEBL 161700Z 1618/1718 06006KT 9999 FEW015 TX29/1712Z TN23/1705Z BECMG 1623/1701 33006KT BECMG 1709/1711 21010KT